sensor_id;sensor_type;location;lat;lon;timestamp;temperature;humidity
17489;DHT22;8861;52.644;4.734;2022-10-01T00:00:23;11.50;99.90
17489;DHT22;8861;52.644;4.734;2022-10-01T00:02:51;11.50;99.90
17489;DHT22;8861;52.644;4.734;2022-10-01T00:05:18;11.50;99.90
17489;DHT22;8861;52.644;4.734;2022-10-01T00:07:46;11.50;99.90
17489;DHT22;8861;52.644;4.734;2022-10-01T00:10:14;11.50;99.90
17489;DHT22;8861;52.644;4.734;2022-10-01T00:12:45;11.50;99.90
17489;DHT22;8861;52.644;4.734;2022-10-01T00:15:13;11.50;99.90
17489;DHT22;8861;52.644;4.734;2022-10-01T00:17:40;11.50;99.90
17489;DHT22;8861;52.644;4.734;2022-10-01T00:20:08;11.50;99.90
17489;DHT22;8861;52.644;4.734;2022-10-01T00:22:35;11.50;99.90
17489;DHT22;8861;52.644;4.734;2022-10-01T00:25:03;11.50;99.90
17489;DHT22;8861;52.644;4.734;2022-10-01T00:27:30;11.50;99.90
17489;DHT22;8861;52.644;4.734;2022-10-01T00:29:59;11.50;99.90
17489;DHT22;8861;52.644;4.734;2022-10-01T00:32:26;11.50;99.90
17489;DHT22;8861;52.644;4.734;2022-10-01T00:34:52;11.50;99.90
17489;DHT22;8861;52.644;4.734;2022-10-01T00:37:19;11.50;99.90
17489;DHT22;8861;52.644;4.734;2022-10-01T00:39:46;11.60;99.90
17489;DHT22;8861;52.644;4.734;2022-10-01T00:42:17;11.50;99.90
17489;DHT22;8861;52.644;4.734;2022-10-01T00:44:45;11.50;99.90
17489;DHT22;8861;52.644;4.734;2022-10-01T00:47:20;11.50;99.90
17489;DHT22;8861;52.644;4.734;2022-10-01T00:49:51;11.50;99.90
17489;DHT22;8861;52.644;4.734;2022-10-01T00:52:22;11.60;99.90
17489;DHT22;8861;52.644;4.734;2022-10-01T00:54:53;11.60;99.90
17489;DHT22;8861;52.644;4.734;2022-10-01T00:57:22;11.60;99.90
17489;DHT22;8861;52.644;4.734;2022-10-01T00:59:51;11.60;99.90
17489;DHT22;8861;52.644;4.734;2022-10-01T01:02:21;11.60;99.90
17489;DHT22;8861;52.644;4.734;2022-10-01T01:04:48;11.70;99.90
17489;DHT22;8861;52.644;4.734;2022-10-01T01:07:15;11.60;99.90
17489;DHT22;8861;52.644;4.734;2022-10-01T01:09:44;11.60;99.90
17489;DHT22;8861;52.644;4.734;2022-10-01T01:12:20;11.60;99.90
17489;DHT22;8861;52.644;4.734;2022-10-01T01:14:56;11.70;99.90
17489;DHT22;8861;52.644;4.734;2022-10-01T01:17:34;11.70;99.90
17489;DHT22;8861;52.644;4.734;2022-10-01T01:20:16;11.70;99.90
17489;DHT22;8861;52.644;4.734;2022-10-01T01:22:49;11.70;99.90
17489;DHT22;8861;52.644;4.734;2022-10-01T01:25:26;11.70;99.90
17489;DHT22;8861;52.644;4.734;2022-10-01T01:28:05;11.70;99.90
17489;DHT22;8861;52.644;4.734;2022-10-01T01:30:35;11.70;99.90
17489;DHT22;8861;52.644;4.734;2022-10-01T01:33:09;11.70;99.90
17489;DHT22;8861;52.644;4.734;2022-10-01T01:35:42;11.80;99.90
17489;DHT22;8861;52.644;4.734;2022-10-01T01:38:13;11.80;99.90
17489;DHT22;8861;52.644;4.734;2022-10-01T01:40:43;11.80;99.90
17489;DHT22;8861;52.644;4.734;2022-10-01T01:43:14;11.80;99.90
17489;DHT22;8861;52.644;4.734;2022-10-01T01:45:47;11.80;99.90
17489;DHT22;8861;52.644;4.734;2022-10-01T01:48:15;11.80;99.90
17489;DHT22;8861;52.644;4.734;2022-10-01T01:50:46;11.80;99.90
17489;DHT22;8861;52.644;4.734;2022-10-01T01:53:16;11.80;99.90
17489;DHT22;8861;52.644;4.734;2022-10-01T01:55:45;11.80;99.90
17489;DHT22;8861;52.644;4.734;2022-10-01T01:58:16;11.80;99.90
17489;DHT22;8861;52.644;4.734;2022-10-01T02:00:43;11.80;99.90
17489;DHT22;8861;52.644;4.734;2022-10-01T02:03:11;11.90;99.90
17489;DHT22;8861;52.644;4.734;2022-10-01T02:05:42;11.90;99.90
17489;DHT22;8861;52.644;4.734;2022-10-01T02:08:23;11.80;99.90
17489;DHT22;8861;52.644;4.734;2022-10-01T02:11:02;11.90;99.90
17489;DHT22;8861;52.644;4.734;2022-10-01T02:13:39;11.90;99.90
17489;DHT22;8861;52.644;4.734;2022-10-01T02:16:13;11.90;99.90
17489;DHT22;8861;52.644;4.734;2022-10-01T02:18:49;11.90;99.90
17489;DHT22;8861;52.644;4.734;2022-10-01T02:21:20;12.00;99.90
17489;DHT22;8861;52.644;4.734;2022-10-01T02:23:52;12.00;99.90
17489;DHT22;8861;52.644;4.734;2022-10-01T02:26:24;12.00;99.90
17489;DHT22;8861;52.644;4.734;2022-10-01T02:28:55;12.10;99.90
17489;DHT22;8861;52.644;4.734;2022-10-01T02:31:24;12.10;99.90
17489;DHT22;8861;52.644;4.734;2022-10-01T02:33:52;12.20;99.90
17489;DHT22;8861;52.644;4.734;2022-10-01T02:36:22;12.20;99.90
17489;DHT22;8861;52.644;4.734;2022-10-01T02:38:51;12.20;99.90
17489;DHT22;8861;52.644;4.734;2022-10-01T02:41:21;12.30;99.90
17489;DHT22;8861;52.644;4.734;2022-10-01T02:43:54;12.30;99.90
17489;DHT22;8861;52.644;4.734;2022-10-01T02:46:26;12.30;99.90
17489;DHT22;8861;52.644;4.734;2022-10-01T02:48:55;12.40;99.90
17489;DHT22;8861;52.644;4.734;2022-10-01T02:51:27;12.40;99.90
17489;DHT22;8861;52.644;4.734;2022-10-01T02:54:00;12.50;99.90
17489;DHT22;8861;52.644;4.734;2022-10-01T02:56:29;12.50;99.90
17489;DHT22;8861;52.644;4.734;2022-10-01T02:59:16;12.60;99.90
17489;DHT22;8861;52.644;4.734;2022-10-01T03:01:45;12.70;99.90
17489;DHT22;8861;52.644;4.734;2022-10-01T03:04:12;12.70;99.90
17489;DHT22;8861;52.644;4.734;2022-10-01T03:06:39;12.90;99.90
17489;DHT22;8861;52.644;4.734;2022-10-01T03:09:06;13.00;99.90
17489;DHT22;8861;52.644;4.734;2022-10-01T03:11:33;13.10;99.90
17489;DHT22;8861;52.644;4.734;2022-10-01T03:14:00;13.30;99.90
17489;DHT22;8861;52.644;4.734;2022-10-01T03:16:30;13.40;99.90
17489;DHT22;8861;52.644;4.734;2022-10-01T03:18:57;13.60;99.90
17489;DHT22;8861;52.644;4.734;2022-10-01T03:21:24;13.60;99.90
17489;DHT22;8861;52.644;4.734;2022-10-01T03:23:51;13.60;99.90
17489;DHT22;8861;52.644;4.734;2022-10-01T03:26:18;13.60;99.90
17489;DHT22;8861;52.644;4.734;2022-10-01T03:28:45;13.60;99.90
17489;DHT22;8861;52.644;4.734;2022-10-01T03:31:11;13.50;99.90
17489;DHT22;8861;52.644;4.734;2022-10-01T03:33:40;13.50;99.90
17489;DHT22;8861;52.644;4.734;2022-10-01T03:36:07;13.50;99.90
17489;DHT22;8861;52.644;4.734;2022-10-01T03:38:34;13.40;99.90
17489;DHT22;8861;52.644;4.734;2022-10-01T03:41:00;13.50;99.90
17489;DHT22;8861;52.644;4.734;2022-10-01T03:43:27;13.50;99.90
17489;DHT22;8861;52.644;4.734;2022-10-01T03:45:55;13.50;99.90
17489;DHT22;8861;52.644;4.734;2022-10-01T03:48:22;13.50;99.90
17489;DHT22;8861;52.644;4.734;2022-10-01T03:50:54;13.50;99.90
17489;DHT22;8861;52.644;4.734;2022-10-01T03:53:22;13.40;99.90
17489;DHT22;8861;52.644;4.734;2022-10-01T03:55:49;13.40;99.90
17489;DHT22;8861;52.644;4.734;2022-10-01T03:58:16;13.40;99.90
17489;DHT22;8861;52.644;4.734;2022-10-01T04:00:44;13.40;99.90
17489;DHT22;8861;52.644;4.734;2022-10-01T04:03:12;13.40;99.90
17489;DHT22;8861;52.644;4.734;2022-10-01T04:05:39;13.40;99.90
17489;DHT22;8861;52.644;4.734;2022-10-01T04:08:08;13.40;99.90
17489;DHT22;8861;52.644;4.734;2022-10-01T04:10:35;13.50;99.90
17489;DHT22;8861;52.644;4.734;2022-10-01T04:13:03;13.50;99.90
17489;DHT22;8861;52.644;4.734;2022-10-01T04:15:30;13.60;99.90
17489;DHT22;8861;52.644;4.734;2022-10-01T04:17:58;13.60;99.90
17489;DHT22;8861;52.644;4.734;2022-10-01T04:20:26;13.60;99.90
17489;DHT22;8861;52.644;4.734;2022-10-01T04:22:53;13.70;99.90
17489;DHT22;8861;52.644;4.734;2022-10-01T04:25:22;13.70;99.90
17489;DHT22;8861;52.644;4.734;2022-10-01T04:27:57;13.70;99.90
17489;DHT22;8861;52.644;4.734;2022-10-01T04:30:25;13.70;99.90
17489;DHT22;8861;52.644;4.734;2022-10-01T04:32:52;13.70;99.90
17489;DHT22;8861;52.644;4.734;2022-10-01T04:35:19;13.80;99.90
17489;DHT22;8861;52.644;4.734;2022-10-01T04:37:46;13.90;99.90
17489;DHT22;8861;52.644;4.734;2022-10-01T04:40:14;13.90;99.90
17489;DHT22;8861;52.644;4.734;2022-10-01T04:42:42;13.90;99.90
17489;DHT22;8861;52.644;4.734;2022-10-01T04:45:10;14.00;99.90
17489;DHT22;8861;52.644;4.734;2022-10-01T04:47:38;14.00;99.90
17489;DHT22;8861;52.644;4.734;2022-10-01T04:50:13;14.10;99.90
17489;DHT22;8861;52.644;4.734;2022-10-01T04:52:40;14.10;99.90
17489;DHT22;8861;52.644;4.734;2022-10-01T04:55:07;14.10;99.90
17489;DHT22;8861;52.644;4.734;2022-10-01T04:57:35;14.20;99.90
17489;DHT22;8861;52.644;4.734;2022-10-01T05:00:05;14.20;99.90
17489;DHT22;8861;52.644;4.734;2022-10-01T05:02:32;14.10;99.90
17489;DHT22;8861;52.644;4.734;2022-10-01T05:05:00;14.10;99.90
17489;DHT22;8861;52.644;4.734;2022-10-01T05:07:28;14.00;99.90
17489;DHT22;8861;52.644;4.734;2022-10-01T05:09:56;14.00;99.90
17489;DHT22;8861;52.644;4.734;2022-10-01T05:12:23;13.90;99.90
17489;DHT22;8861;52.644;4.734;2022-10-01T05:14:50;13.80;99.90
17489;DHT22;8861;52.644;4.734;2022-10-01T05:17:19;13.80;99.90
17489;DHT22;8861;52.644;4.734;2022-10-01T05:19:46;13.70;99.90
17489;DHT22;8861;52.644;4.734;2022-10-01T05:22:13;13.60;99.90
17489;DHT22;8861;52.644;4.734;2022-10-01T05:24:41;13.60;99.90
17489;DHT22;8861;52.644;4.734;2022-10-01T05:27:09;13.60;99.90
17489;DHT22;8861;52.644;4.734;2022-10-01T05:29:38;13.60;99.90
17489;DHT22;8861;52.644;4.734;2022-10-01T05:32:05;13.60;99.90
17489;DHT22;8861;52.644;4.734;2022-10-01T05:34:34;13.60;99.90
17489;DHT22;8861;52.644;4.734;2022-10-01T05:37:01;13.50;99.90
17489;DHT22;8861;52.644;4.734;2022-10-01T05:39:28;13.50;99.90
17489;DHT22;8861;52.644;4.734;2022-10-01T05:41:56;13.50;99.90
17489;DHT22;8861;52.644;4.734;2022-10-01T05:44:24;13.50;99.90
17489;DHT22;8861;52.644;4.734;2022-10-01T05:46:52;13.40;99.90
17489;DHT22;8861;52.644;4.734;2022-10-01T05:49:19;13.40;99.90
17489;DHT22;8861;52.644;4.734;2022-10-01T05:51:47;13.40;99.90
17489;DHT22;8861;52.644;4.734;2022-10-01T05:54:14;13.30;99.90
17489;DHT22;8861;52.644;4.734;2022-10-01T05:56:43;13.30;99.90
17489;DHT22;8861;52.644;4.734;2022-10-01T05:59:10;13.30;99.90
17489;DHT22;8861;52.644;4.734;2022-10-01T06:01:37;13.20;99.90
17489;DHT22;8861;52.644;4.734;2022-10-01T06:04:04;13.20;99.90
17489;DHT22;8861;52.644;4.734;2022-10-01T06:06:31;13.30;99.90
17489;DHT22;8861;52.644;4.734;2022-10-01T06:08:59;13.30;99.90
17489;DHT22;8861;52.644;4.734;2022-10-01T06:11:26;13.40;99.90
17489;DHT22;8861;52.644;4.734;2022-10-01T06:13:53;13.60;99.90
17489;DHT22;8861;52.644;4.734;2022-10-01T06:16:20;13.70;99.90
17489;DHT22;8861;52.644;4.734;2022-10-01T06:18:47;13.70;99.90
17489;DHT22;8861;52.644;4.734;2022-10-01T06:21:14;13.80;99.90
17489;DHT22;8861;52.644;4.734;2022-10-01T06:23:41;13.80;99.90
17489;DHT22;8861;52.644;4.734;2022-10-01T06:26:10;13.90;99.90
17489;DHT22;8861;52.644;4.734;2022-10-01T06:28:37;13.90;99.90
17489;DHT22;8861;52.644;4.734;2022-10-01T06:31:04;13.90;99.90
17489;DHT22;8861;52.644;4.734;2022-10-01T06:33:31;13.90;99.90
17489;DHT22;8861;52.644;4.734;2022-10-01T06:35:58;13.90;99.90
17489;DHT22;8861;52.644;4.734;2022-10-01T06:38:25;13.80;99.90
17489;DHT22;8861;52.644;4.734;2022-10-01T06:40:53;13.80;99.90
17489;DHT22;8861;52.644;4.734;2022-10-01T06:43:22;13.80;99.90
17489;DHT22;8861;52.644;4.734;2022-10-01T06:45:49;13.80;99.90
17489;DHT22;8861;52.644;4.734;2022-10-01T06:48:17;13.80;99.90
17489;DHT22;8861;52.644;4.734;2022-10-01T06:50:46;13.90;99.90
17489;DHT22;8861;52.644;4.734;2022-10-01T06:53:14;14.10;99.90
17489;DHT22;8861;52.644;4.734;2022-10-01T06:55:42;14.10;99.90
17489;DHT22;8861;52.644;4.734;2022-10-01T06:58:12;14.10;99.90
17489;DHT22;8861;52.644;4.734;2022-10-01T07:00:41;14.10;99.90
17489;DHT22;8861;52.644;4.734;2022-10-01T07:03:12;14.20;99.90
17489;DHT22;8861;52.644;4.734;2022-10-01T07:05:39;14.20;99.90
17489;DHT22;8861;52.644;4.734;2022-10-01T07:08:07;14.20;99.90
17489;DHT22;8861;52.644;4.734;2022-10-01T07:10:34;14.20;99.90
17489;DHT22;8861;52.644;4.734;2022-10-01T07:13:06;14.30;99.90
17489;DHT22;8861;52.644;4.734;2022-10-01T07:15:33;14.40;99.90
17489;DHT22;8861;52.644;4.734;2022-10-01T07:18:02;14.70;99.90
17489;DHT22;8861;52.644;4.734;2022-10-01T07:20:29;15.00;99.90
17489;DHT22;8861;52.644;4.734;2022-10-01T07:23:00;15.20;99.90
17489;DHT22;8861;52.644;4.734;2022-10-01T07:25:27;15.20;99.90
17489;DHT22;8861;52.644;4.734;2022-10-01T07:27:55;15.00;99.90
17489;DHT22;8861;52.644;4.734;2022-10-01T07:30:24;14.70;99.90
17489;DHT22;8861;52.644;4.734;2022-10-01T07:32:51;14.50;99.90
17489;DHT22;8861;52.644;4.734;2022-10-01T07:35:20;14.30;99.90
17489;DHT22;8861;52.644;4.734;2022-10-01T07:37:48;14.20;99.90
17489;DHT22;8861;52.644;4.734;2022-10-01T07:40:15;14.10;99.90
17489;DHT22;8861;52.644;4.734;2022-10-01T07:42:43;14.00;99.90
17489;DHT22;8861;52.644;4.734;2022-10-01T07:45:10;14.00;99.90
17489;DHT22;8861;52.644;4.734;2022-10-01T07:47:37;14.00;99.90
17489;DHT22;8861;52.644;4.734;2022-10-01T07:50:04;14.10;99.90
17489;DHT22;8861;52.644;4.734;2022-10-01T07:52:33;14.20;99.90
17489;DHT22;8861;52.644;4.734;2022-10-01T07:55:00;14.40;99.90
17489;DHT22;8861;52.644;4.734;2022-10-01T07:57:27;14.50;99.90
17489;DHT22;8861;52.644;4.734;2022-10-01T07:59:54;14.70;99.90
17489;DHT22;8861;52.644;4.734;2022-10-01T08:02:21;14.80;99.90
17489;DHT22;8861;52.644;4.734;2022-10-01T08:04:48;14.80;99.90
17489;DHT22;8861;52.644;4.734;2022-10-01T08:07:33;14.90;99.90
17489;DHT22;8861;52.644;4.734;2022-10-01T08:10:01;15.10;99.90
17489;DHT22;8861;52.644;4.734;2022-10-01T08:12:29;15.20;99.90
17489;DHT22;8861;52.644;4.734;2022-10-01T08:14:56;15.20;99.90
17489;DHT22;8861;52.644;4.734;2022-10-01T08:17:23;15.20;99.90
17489;DHT22;8861;52.644;4.734;2022-10-01T08:19:50;15.20;99.90
17489;DHT22;8861;52.644;4.734;2022-10-01T08:22:16;15.10;99.90
17489;DHT22;8861;52.644;4.734;2022-10-01T08:24:45;15.20;99.90
17489;DHT22;8861;52.644;4.734;2022-10-01T08:27:12;15.30;99.90
17489;DHT22;8861;52.644;4.734;2022-10-01T08:29:39;15.40;99.90
17489;DHT22;8861;52.644;4.734;2022-10-01T08:32:08;15.60;99.90
17489;DHT22;8861;52.644;4.734;2022-10-01T08:34:35;15.70;99.90
17489;DHT22;8861;52.644;4.734;2022-10-01T08:37:02;15.80;99.90
17489;DHT22;8861;52.644;4.734;2022-10-01T08:39:29;15.80;99.90
17489;DHT22;8861;52.644;4.734;2022-10-01T08:42:02;15.90;99.90
17489;DHT22;8861;52.644;4.734;2022-10-01T08:44:37;15.90;99.90
17489;DHT22;8861;52.644;4.734;2022-10-01T08:47:09;16.00;99.90
17489;DHT22;8861;52.644;4.734;2022-10-01T08:49:42;16.00;99.90
17489;DHT22;8861;52.644;4.734;2022-10-01T08:52:20;16.00;99.90
17489;DHT22;8861;52.644;4.734;2022-10-01T08:54:52;15.80;99.90
17489;DHT22;8861;52.644;4.734;2022-10-01T08:57:24;15.80;99.90
17489;DHT22;8861;52.644;4.734;2022-10-01T08:59:56;15.70;99.90
17489;DHT22;8861;52.644;4.734;2022-10-01T09:02:25;15.60;99.90
17489;DHT22;8861;52.644;4.734;2022-10-01T09:04:55;15.50;99.90
17489;DHT22;8861;52.644;4.734;2022-10-01T09:10:32;15.80;99.90
17489;DHT22;8861;52.644;4.734;2022-10-01T09:13:24;16.00;99.90
17489;DHT22;8861;52.644;4.734;2022-10-01T09:15:59;16.20;99.90
17489;DHT22;8861;52.644;4.734;2022-10-01T09:18:38;16.20;99.90
17489;DHT22;8861;52.644;4.734;2022-10-01T09:21:17;16.30;99.90
17489;DHT22;8861;52.644;4.734;2022-10-01T09:23:53;16.50;99.90
17489;DHT22;8861;52.644;4.734;2022-10-01T09:26:23;16.50;99.90
17489;DHT22;8861;52.644;4.734;2022-10-01T09:28:52;16.50;99.90
17489;DHT22;8861;52.644;4.734;2022-10-01T09:31:25;16.30;99.90
17489;DHT22;8861;52.644;4.734;2022-10-01T09:33:57;16.10;99.90
17489;DHT22;8861;52.644;4.734;2022-10-01T09:36:33;16.00;99.90
17489;DHT22;8861;52.644;4.734;2022-10-01T09:39:10;16.00;99.90
17489;DHT22;8861;52.644;4.734;2022-10-01T09:41:38;16.00;99.90
17489;DHT22;8861;52.644;4.734;2022-10-01T09:44:10;16.10;99.90
17489;DHT22;8861;52.644;4.734;2022-10-01T09:46:39;16.20;99.90
17489;DHT22;8861;52.644;4.734;2022-10-01T09:49:10;16.40;99.90
17489;DHT22;8861;52.644;4.734;2022-10-01T09:51:41;16.50;99.90
17489;DHT22;8861;52.644;4.734;2022-10-01T09:54:14;16.60;99.90
17489;DHT22;8861;52.644;4.734;2022-10-01T09:56:46;16.90;99.90
17489;DHT22;8861;52.644;4.734;2022-10-01T09:59:21;17.00;99.90
17489;DHT22;8861;52.644;4.734;2022-10-01T10:01:53;16.90;99.90
17489;DHT22;8861;52.644;4.734;2022-10-01T10:04:22;16.90;99.90
17489;DHT22;8861;52.644;4.734;2022-10-01T10:06:50;16.80;99.90
17489;DHT22;8861;52.644;4.734;2022-10-01T10:09:18;16.70;99.90
17489;DHT22;8861;52.644;4.734;2022-10-01T10:11:47;16.50;99.90
17489;DHT22;8861;52.644;4.734;2022-10-01T10:14:17;16.50;99.90
17489;DHT22;8861;52.644;4.734;2022-10-01T10:16:47;16.60;99.90
17489;DHT22;8861;52.644;4.734;2022-10-01T10:19:19;16.50;99.90
17489;DHT22;8861;52.644;4.734;2022-10-01T10:21:52;16.30;99.90
17489;DHT22;8861;52.644;4.734;2022-10-01T10:24:24;16.10;99.90
17489;DHT22;8861;52.644;4.734;2022-10-01T10:26:54;16.00;99.90
17489;DHT22;8861;52.644;4.734;2022-10-01T10:29:28;15.90;99.90
17489;DHT22;8861;52.644;4.734;2022-10-01T10:31:56;15.70;99.90
17489;DHT22;8861;52.644;4.734;2022-10-01T10:34:29;15.60;99.90
17489;DHT22;8861;52.644;4.734;2022-10-01T10:37:00;15.70;99.90
17489;DHT22;8861;52.644;4.734;2022-10-01T10:39:31;15.70;99.90
17489;DHT22;8861;52.644;4.734;2022-10-01T10:41:59;15.70;99.90
17489;DHT22;8861;52.644;4.734;2022-10-01T10:44:31;15.80;99.90
17489;DHT22;8861;52.644;4.734;2022-10-01T10:47:03;16.00;99.90
17489;DHT22;8861;52.644;4.734;2022-10-01T10:49:32;16.10;99.90
17489;DHT22;8861;52.644;4.734;2022-10-01T10:52:01;16.20;99.90
17489;DHT22;8861;52.644;4.734;2022-10-01T10:54:31;16.20;99.90
17489;DHT22;8861;52.644;4.734;2022-10-01T10:57:01;16.40;99.90
17489;DHT22;8861;52.644;4.734;2022-10-01T10:59:31;16.70;99.90
17489;DHT22;8861;52.644;4.734;2022-10-01T11:02:00;17.10;99.90
17489;DHT22;8861;52.644;4.734;2022-10-01T11:04:39;17.30;99.90
17489;DHT22;8861;52.644;4.734;2022-10-01T11:07:08;17.30;99.90
17489;DHT22;8861;52.644;4.734;2022-10-01T11:09:51;17.20;99.90
17489;DHT22;8861;52.644;4.734;2022-10-01T11:12:30;17.10;99.90
17489;DHT22;8861;52.644;4.734;2022-10-01T11:15:13;17.10;99.90
17489;DHT22;8861;52.644;4.734;2022-10-01T11:17:55;17.00;99.90
17489;DHT22;8861;52.644;4.734;2022-10-01T11:20:33;17.10;99.90
17489;DHT22;8861;52.644;4.734;2022-10-01T11:23:16;17.10;99.90
17489;DHT22;8861;52.644;4.734;2022-10-01T11:25:52;17.10;99.90
17489;DHT22;8861;52.644;4.734;2022-10-01T11:28:35;17.00;99.90
17489;DHT22;8861;52.644;4.734;2022-10-01T11:31:12;17.10;99.90
17489;DHT22;8861;52.644;4.734;2022-10-01T11:33:48;17.20;99.90
17489;DHT22;8861;52.644;4.734;2022-10-01T11:36:26;17.20;99.90
17489;DHT22;8861;52.644;4.734;2022-10-01T11:38:56;17.30;99.90
17489;DHT22;8861;52.644;4.734;2022-10-01T11:41:28;17.60;99.90
17489;DHT22;8861;52.644;4.734;2022-10-01T11:43:58;17.80;99.90
17489;DHT22;8861;52.644;4.734;2022-10-01T11:46:36;17.70;99.90
17489;DHT22;8861;52.644;4.734;2022-10-01T11:49:19;17.50;99.90
17489;DHT22;8861;52.644;4.734;2022-10-01T11:51:51;17.40;99.90
17489;DHT22;8861;52.644;4.734;2022-10-01T11:54:23;17.20;99.90
17489;DHT22;8861;52.644;4.734;2022-10-01T11:56:54;17.20;99.90
17489;DHT22;8861;52.644;4.734;2022-10-01T11:59:43;17.30;99.90
17489;DHT22;8861;52.644;4.734;2022-10-01T12:02:20;17.30;99.90
17489;DHT22;8861;52.644;4.734;2022-10-01T12:04:54;17.40;99.90
17489;DHT22;8861;52.644;4.734;2022-10-01T12:07:27;17.50;99.90
17489;DHT22;8861;52.644;4.734;2022-10-01T12:10:02;17.60;99.90
17489;DHT22;8861;52.644;4.734;2022-10-01T12:12:35;17.70;99.90
17489;DHT22;8861;52.644;4.734;2022-10-01T12:15:09;17.70;99.90
17489;DHT22;8861;52.644;4.734;2022-10-01T12:17:44;17.60;99.90
17489;DHT22;8861;52.644;4.734;2022-10-01T12:20:19;17.60;99.90
17489;DHT22;8861;52.644;4.734;2022-10-01T12:22:48;17.50;99.90
17489;DHT22;8861;52.644;4.734;2022-10-01T12:25:17;17.50;99.90
17489;DHT22;8861;52.644;4.734;2022-10-01T12:27:54;17.70;99.90
17489;DHT22;8861;52.644;4.734;2022-10-01T12:30:26;17.70;99.90
17489;DHT22;8861;52.644;4.734;2022-10-01T12:33:19;17.80;99.90
17489;DHT22;8861;52.644;4.734;2022-10-01T12:35:57;17.90;99.90
17489;DHT22;8861;52.644;4.734;2022-10-01T12:38:45;17.80;99.90
17489;DHT22;8861;52.644;4.734;2022-10-01T12:41:22;17.60;99.90
17489;DHT22;8861;52.644;4.734;2022-10-01T12:44:11;17.50;99.90
17489;DHT22;8861;52.644;4.734;2022-10-01T12:46:43;17.40;99.90
17489;DHT22;8861;52.644;4.734;2022-10-01T12:52:13;17.40;99.90
17489;DHT22;8861;52.644;4.734;2022-10-01T12:55:00;17.40;99.90
17489;DHT22;8861;52.644;4.734;2022-10-01T12:57:39;17.30;99.90
17489;DHT22;8861;52.644;4.734;2022-10-01T13:00:12;17.30;99.90
17489;DHT22;8861;52.644;4.734;2022-10-01T13:05:52;17.60;99.90
17489;DHT22;8861;52.644;4.734;2022-10-01T13:08:31;17.60;99.90
17489;DHT22;8861;52.644;4.734;2022-10-01T13:11:06;17.60;99.90
17489;DHT22;8861;52.644;4.734;2022-10-01T13:13:34;17.60;99.90
17489;DHT22;8861;52.644;4.734;2022-10-01T13:16:07;17.70;99.90
17489;DHT22;8861;52.644;4.734;2022-10-01T13:18:49;17.80;99.90
17489;DHT22;8861;52.644;4.734;2022-10-01T13:21:22;17.90;99.90
17489;DHT22;8861;52.644;4.734;2022-10-01T13:23:59;17.90;99.90
17489;DHT22;8861;52.644;4.734;2022-10-01T13:26:31;17.70;99.90
17489;DHT22;8861;52.644;4.734;2022-10-01T13:29:10;17.60;99.90
17489;DHT22;8861;52.644;4.734;2022-10-01T13:31:51;17.60;99.90
17489;DHT22;8861;52.644;4.734;2022-10-01T13:34:26;17.50;99.90
17489;DHT22;8861;52.644;4.734;2022-10-01T13:36:56;17.40;99.90
17489;DHT22;8861;52.644;4.734;2022-10-01T13:39:24;17.30;99.90
17489;DHT22;8861;52.644;4.734;2022-10-01T13:41:58;17.20;99.90
17489;DHT22;8861;52.644;4.734;2022-10-01T13:44:30;17.10;99.90
17489;DHT22;8861;52.644;4.734;2022-10-01T13:47:01;17.00;99.90
17489;DHT22;8861;52.644;4.734;2022-10-01T13:49:31;16.90;99.90
17489;DHT22;8861;52.644;4.734;2022-10-01T13:51:58;16.80;99.90
17489;DHT22;8861;52.644;4.734;2022-10-01T13:54:32;16.70;99.90
17489;DHT22;8861;52.644;4.734;2022-10-01T13:57:08;16.70;99.90
17489;DHT22;8861;52.644;4.734;2022-10-01T13:59:36;16.70;99.90
17489;DHT22;8861;52.644;4.734;2022-10-01T14:02:23;16.70;99.90
17489;DHT22;8861;52.644;4.734;2022-10-01T14:04:53;16.70;99.90
17489;DHT22;8861;52.644;4.734;2022-10-01T14:07:24;16.70;99.90
17489;DHT22;8861;52.644;4.734;2022-10-01T14:09:57;16.90;99.90
17489;DHT22;8861;52.644;4.734;2022-10-01T14:12:29;17.00;99.90
17489;DHT22;8861;52.644;4.734;2022-10-01T14:15:16;17.10;99.90
17489;DHT22;8861;52.644;4.734;2022-10-01T14:18:20;17.10;99.90
17489;DHT22;8861;52.644;4.734;2022-10-01T14:20:52;17.00;99.90
17489;DHT22;8861;52.644;4.734;2022-10-01T14:23:24;17.00;99.90
17489;DHT22;8861;52.644;4.734;2022-10-01T14:26:00;16.90;99.90
17489;DHT22;8861;52.644;4.734;2022-10-01T14:28:43;17.00;99.90
17489;DHT22;8861;52.644;4.734;2022-10-01T14:31:17;17.10;99.90
17489;DHT22;8861;52.644;4.734;2022-10-01T14:34:05;17.10;99.90
17489;DHT22;8861;52.644;4.734;2022-10-01T14:36:38;17.10;99.90
17489;DHT22;8861;52.644;4.734;2022-10-01T14:39:14;17.10;99.90
17489;DHT22;8861;52.644;4.734;2022-10-01T14:41:43;17.10;99.90
17489;DHT22;8861;52.644;4.734;2022-10-01T14:44:22;17.10;99.90
17489;DHT22;8861;52.644;4.734;2022-10-01T14:46:51;17.10;99.90
17489;DHT22;8861;52.644;4.734;2022-10-01T14:49:20;17.10;99.90
17489;DHT22;8861;52.644;4.734;2022-10-01T14:51:50;17.10;99.90
17489;DHT22;8861;52.644;4.734;2022-10-01T14:54:18;17.20;99.90
17489;DHT22;8861;52.644;4.734;2022-10-01T14:56:47;17.30;99.90
17489;DHT22;8861;52.644;4.734;2022-10-01T14:59:20;17.30;99.90
17489;DHT22;8861;52.644;4.734;2022-10-01T15:02:00;17.30;99.90
17489;DHT22;8861;52.644;4.734;2022-10-01T15:04:27;17.30;99.90
17489;DHT22;8861;52.644;4.734;2022-10-01T15:07:02;17.30;99.90
17489;DHT22;8861;52.644;4.734;2022-10-01T15:09:32;17.40;99.90
17489;DHT22;8861;52.644;4.734;2022-10-01T15:12:01;17.20;99.90
17489;DHT22;8861;52.644;4.734;2022-10-01T15:14:30;17.00;99.90
17489;DHT22;8861;52.644;4.734;2022-10-01T15:17:01;16.70;99.90
17489;DHT22;8861;52.644;4.734;2022-10-01T15:19:29;16.50;99.90
17489;DHT22;8861;52.644;4.734;2022-10-01T15:21:58;16.50;99.90
17489;DHT22;8861;52.644;4.734;2022-10-01T15:24:31;16.50;99.90
17489;DHT22;8861;52.644;4.734;2022-10-01T15:27:03;16.40;99.90
17489;DHT22;8861;52.644;4.734;2022-10-01T15:29:32;16.20;99.90
17489;DHT22;8861;52.644;4.734;2022-10-01T15:32:00;16.00;99.90
17489;DHT22;8861;52.644;4.734;2022-10-01T15:34:28;15.70;99.90
17489;DHT22;8861;52.644;4.734;2022-10-01T15:36:56;15.60;99.90
17489;DHT22;8861;52.644;4.734;2022-10-01T15:39:28;15.40;99.90
17489;DHT22;8861;52.644;4.734;2022-10-01T15:41:56;15.40;99.90
17489;DHT22;8861;52.644;4.734;2022-10-01T15:44:40;15.40;99.90
17489;DHT22;8861;52.644;4.734;2022-10-01T15:47:21;15.40;99.90
17489;DHT22;8861;52.644;4.734;2022-10-01T15:50:00;15.50;99.90
17489;DHT22;8861;52.644;4.734;2022-10-01T15:52:28;15.60;99.90
17489;DHT22;8861;52.644;4.734;2022-10-01T15:55:13;15.60;99.90
17489;DHT22;8861;52.644;4.734;2022-10-01T15:57:41;15.70;99.90
17489;DHT22;8861;52.644;4.734;2022-10-01T16:00:20;15.80;99.90
17489;DHT22;8861;52.644;4.734;2022-10-01T16:02:47;16.00;99.90
17489;DHT22;8861;52.644;4.734;2022-10-01T16:05:17;16.20;99.90
17489;DHT22;8861;52.644;4.734;2022-10-01T16:07:46;16.30;99.90
17489;DHT22;8861;52.644;4.734;2022-10-01T16:10:30;16.30;99.90
17489;DHT22;8861;52.644;4.734;2022-10-01T16:12:57;16.40;99.90
17489;DHT22;8861;52.644;4.734;2022-10-01T16:15:28;16.40;99.90
17489;DHT22;8861;52.644;4.734;2022-10-01T16:17:56;16.40;99.90